Time;durP1;ratioP1;P1;durP2;ratioP2;P2;SDS_P1;SDS_P2;PMS_P1;PMS_P2;Temp;Humidity;BMP_temperature;BMP_pressure;BME280_temperature;BME280_humidity;BME280_pressure;Samples;Min_cycle;Max_cycle;Signal;HPM_P1;HPM_P2
2021/09/01 00:06:38;;;;;;;37.75;21.58;;;;;;;12.58;88.97;101317.19;20673325;28;20376;-79
2021/09/01 00:16:40;;;;;;;36.60;19.55;;;;;;;12.53;88.53;101322.47;20674216;28;20473;-79
2021/09/01 00:26:45;;;;;;;38.25;19.73;;;;;;;12.38;89.16;101322.63;20657081;28;20042;-79
2021/09/01 00:36:46;;;;;;;35.97;18.88;;;;;;;12.33;88.74;101327.03;20674284;28;20047;-79
2021/09/01 00:46:52;;;;;;;36.90;19.50;;;;;;;12.31;89.12;101326.16;20675718;28;20420;-79
2021/09/01 00:57:00;;;;;;;30.20;17.25;;;;;;;12.18;88.54;101328.03;20675105;28;20050;-79
2021/09/01 01:07:04;;;;;;;32.45;17.40;;;;;;;12.04;89.35;101320.25;20672779;28;20042;-79
2021/09/01 01:17:14;;;;;;;32.63;19.20;;;;;;;11.99;89.23;101316.78;20670837;28;20046;-79
2021/09/01 01:27:40;;;;;;;34.03;18.35;;;;;;;11.85;88.79;101316.00;20671256;28;20149;-79
2021/09/01 01:37:42;;;;;;;28.77;16.90;;;;;;;11.70;89.14;101323.94;20666364;28;20051;-79
2021/09/01 01:47:44;;;;;;;30.85;18.23;;;;;;;11.63;89.85;101323.06;20666324;28;20070;-79
2021/09/01 01:57:48;;;;;;;34.28;18.63;;;;;;;11.55;89.14;101328.38;20665618;28;20046;-79
2021/09/01 02:07:57;;;;;;;37.42;17.45;;;;;;;11.44;89.92;101332.78;20663654;28;20042;-79
2021/09/01 02:17:59;;;;;;;34.15;17.50;;;;;;;11.52;88.99;101328.38;20663921;28;20074;-79
2021/09/01 02:28:01;;;;;;;31.25;17.75;;;;;;;11.35;89.83;101332.81;20670402;28;20042;-79
2021/09/01 02:38:04;;;;;;;37.50;20.38;;;;;;;11.34;89.57;101331.09;20676925;28;20046;-79
2021/09/01 02:48:06;;;;;;;36.92;18.73;;;;;;;11.17;90.48;101333.78;20676158;28;20046;-79
2021/09/01 02:58:07;;;;;;;35.65;19.30;;;;;;;11.28;90.60;101352.97;20675333;28;20050;-79
2021/09/01 03:08:09;;;;;;;35.67;18.58;;;;;;;11.28;90.03;101362.56;20680001;28;20053;-80
2021/09/01 03:18:11;;;;;;;38.88;20.05;;;;;;;11.23;90.53;101359.97;20693355;28;20076;-79
2021/09/01 03:28:12;;;;;;;41.25;21.83;;;;;;;11.32;90.53;101345.97;20694041;28;20053;-80
2021/09/01 03:38:15;;;;;;;41.63;22.25;;;;;;;11.26;90.60;101354.72;20693676;28;20038;-80
2021/09/01 03:48:19;;;;;;;42.03;22.60;;;;;;;11.19;91.64;101354.72;20696179;28;20523;-80
2021/09/01 03:58:21;;;;;;;43.88;24.33;;;;;;;11.35;91.23;101356.41;20702785;28;20104;-79
2021/09/01 04:08:23;;;;;;;40.22;23.75;;;;;;;11.49;91.08;101372.97;20656459;28;20046;-79
2021/09/01 04:18:27;;;;;;;40.30;25.20;;;;;;;11.64;90.29;101382.56;20673490;28;20485;-79
2021/09/01 04:28:30;;;;;;;40.40;23.67;;;;;;;11.70;90.41;101373.78;20673823;28;20574;-79
2021/09/01 04:38:32;;;;;;;40.40;24.40;;;;;;;11.74;90.19;101378.13;20672755;28;20038;-79
2021/09/01 04:48:41;;;;;;;41.10;24.13;;;;;;;11.86;89.86;101374.59;20658420;28;20471;-80
2021/09/01 04:58:43;;;;;;;38.38;23.08;;;;;;;11.88;89.89;101384.22;20669150;28;20054;-79
2021/09/01 05:08:45;;;;;;;40.22;24.45;;;;;;;11.76;90.34;101386.88;20676560;28;20101;-80
2021/09/01 05:18:47;;;;;;;39.45;24.02;;;;;;;11.89;89.82;101382.47;20687610;28;20050;-80
2021/09/01 05:28:49;;;;;;;42.67;25.67;;;;;;;11.95;89.70;101399.03;20687949;28;20055;-80
2021/09/01 05:38:55;;;;;;;;;;;;;;;12.16;88.91;101403.28;20687142;28;20049;-81
2021/09/01 05:48:59;;;;;;;43.33;25.98;;;;;;;12.24;89.26;101398.00;20665234;28;19922;-80
2021/09/01 05:59:08;;;;;;;38.65;24.70;;;;;;;12.52;88.52;101401.31;20604465;28;20050;-79
2021/09/01 06:09:11;;;;;;;33.17;21.17;;;;;;;12.63;87.49;101414.34;20593765;28;20101;-80
2021/09/01 06:19:18;;;;;;;33.83;20.80;;;;;;;12.96;86.53;101419.31;20578046;28;20051;-83
2021/09/01 06:29:20;;;;;;;27.90;18.38;;;;;;;13.17;86.05;101428.75;20586485;28;20050;-82
2021/09/01 06:39:22;;;;;;;28.35;17.10;;;;;;;13.38;84.58;101422.44;20579824;28;20047;-82
2021/09/01 06:49:23;;;;;;;29.45;16.65;;;;;;;13.64;84.63;101414.22;20593434;28;20398;-82
2021/09/01 06:59:25;;;;;;;22.67;14.65;;;;;;;14.02;83.74;101432.16;20573683;28;20047;-82
2021/09/01 07:09:26;;;;;;;22.55;14.18;;;;;;;14.26;81.77;101438.00;20647873;28;20046;-83
2021/09/01 07:19:28;;;;;;;21.38;13.30;;;;;;;14.49;81.36;101443.84;20678493;28;20105;-83
2021/09/01 07:29:30;;;;;;;22.35;13.55;;;;;;;14.74;81.46;101448.72;20659606;28;20046;-83
2021/09/01 07:39:31;;;;;;;19.95;11.82;;;;;;;15.12;79.53;101458.63;20662197;28;20042;-83
2021/09/01 07:49:34;;;;;;;18.50;13.05;;;;;;;15.29;78.52;101453.06;20680822;28;20051;-81
2021/09/01 07:59:35;;;;;;;19.25;12.65;;;;;;;15.69;78.08;101468.16;20680124;28;20094;-82
2021/09/01 08:09:37;;;;;;;15.80;11.48;;;;;;;15.74;77.77;101476.84;20677532;28;20610;-83
2021/09/01 08:19:41;;;;;;;18.55;12.27;;;;;;;16.12;76.81;101484.84;20697798;28;20151;-83
2021/09/01 08:29:42;;;;;;;16.08;11.10;;;;;;;16.28;75.81;101481.88;20699340;28;20101;-83
2021/09/01 08:39:44;;;;;;;15.25;10.35;;;;;;;16.68;73.50;101489.78;20708803;28;20131;-83
2021/09/01 08:49:47;;;;;;;16.65;10.57;;;;;;;16.79;73.66;101476.34;20703594;28;20113;-83
2021/09/01 08:59:48;;;;;;;15.60;10.43;;;;;;;17.09;70.59;101480.84;20729841;28;20050;-81
2021/09/01 09:09:51;;;;;;;18.05;9.88;;;;;;;17.46;69.59;101485.19;20707836;28;20054;-82
2021/09/01 09:20:06;;;;;;;15.63;9.70;;;;;;;17.63;69.62;101475.03;20669119;28;20544;-82
2021/09/01 09:30:28;;;;;;;16.38;9.38;;;;;;;18.11;68.26;101458.66;20669237;28;20501;-83
2021/09/01 09:40:31;;;;;;;15.30;8.98;;;;;;;18.46;67.86;101459.34;20684128;28;20105;-82
2021/09/01 09:50:33;;;;;;;16.00;8.38;;;;;;;18.79;66.68;101440.63;20653532;28;20047;-82
2021/09/01 10:00:35;;;;;;;14.95;9.48;;;;;;;18.63;67.02;101441.09;20654471;28;20052;-82
2021/09/01 10:10:37;;;;;;;15.43;9.30;;;;;;;18.94;66.22;101440.13;20670203;28;20056;-83
2021/09/01 10:20:42;;;;;;;15.45;9.95;;;;;;;19.34;64.78;101433.41;20672004;28;20051;-82
2021/09/01 10:31:02;;;;;;;20.13;10.07;;;;;;;19.50;65.55;101431.97;20653947;28;20057;-82
2021/09/01 10:41:05;;;;;;;13.68;9.05;;;;;;;19.94;65.17;101418.84;20655197;28;20120;-82
2021/09/01 10:51:25;;;;;;;15.02;7.70;;;;;;;20.20;61.63;101421.34;20664574;28;20050;-83
2021/09/01 11:01:27;;;;;;;14.85;8.65;;;;;;;20.49;62.12;101404.22;20665091;28;20551;-82
2021/09/01 11:11:36;;;;;;;14.63;8.70;;;;;;;20.49;61.93;101406.88;20673432;28;20084;-83
2021/09/01 11:21:40;;;;;;;11.98;6.97;;;;;;;20.38;61.39;101405.56;20682500;28;20050;-83
2021/09/01 11:31:51;;;;;;;15.02;7.53;;;;;;;20.54;61.54;101414.69;20666971;28;20492;-83
2021/09/01 11:41:57;;;;;;;14.38;7.07;;;;;;;20.68;57.74;101409.66;20690517;28;20054;-83
2021/09/01 11:51:59;;;;;;;11.45;6.40;;;;;;;21.40;57.13;101395.06;20661907;28;20047;-83
2021/09/01 12:02:03;;;;;;;11.77;7.00;;;;;;;20.86;55.50;101391.19;20674209;28;20050;-84
2021/09/01 12:12:07;;;;;;;11.15;5.80;;;;;;;20.96;50.24;101385.41;20669386;28;20043;-83
2021/09/01 12:22:08;;;;;;;10.88;6.65;;;;;;;21.44;54.99;101386.00;20682445;28;20046;-83
2021/09/01 12:32:21;;;;;;;10.60;6.85;;;;;;;21.43;52.96;101370.94;20666828;28;20109;-81
2021/09/01 12:42:27;;;;;;;10.68;5.78;;;;;;;21.26;52.29;101359.22;20673297;28;20046;-83
2021/09/01 12:52:31;;;;;;;12.48;6.80;;;;;;;21.59;53.54;101369.31;20658818;28;20053;-84
2021/09/01 13:02:33;;;;;;;13.70;7.50;;;;;;;21.50;52.84;101353.72;20664432;28;20046;-84
2021/09/01 13:12:36;;;;;;;12.98;6.20;;;;;;;21.75;53.10;101338.34;20668614;28;20046;-84
2021/09/01 13:22:37;;;;;;;10.50;6.75;;;;;;;21.27;53.75;101352.06;20658984;28;20046;-83
2021/09/01 13:32:39;;;;;;;12.50;6.07;;;;;;;21.92;51.20;101328.66;20656115;28;20101;-84
2021/09/01 13:42:42;;;;;;;11.43;6.70;;;;;;;21.76;54.27;101324.06;20680621;28;20059;-84
2021/09/01 13:52:44;;;;;;;13.00;6.63;;;;;;;20.99;56.23;101332.03;20688886;28;20052;-83
2021/09/01 14:02:48;;;;;;;11.45;6.93;;;;;;;21.54;54.43;101306.50;20724775;28;20069;-83
2021/09/01 14:12:49;;;;;;;11.43;6.60;;;;;;;21.70;54.72;101294.16;20665867;28;20046;-83
2021/09/01 14:22:51;;;;;;;9.52;6.18;;;;;;;21.82;51.78;101290.91;20655022;28;20455;-79
2021/09/01 14:32:53;;;;;;;11.15;7.00;;;;;;;21.75;52.01;101279.69;20677441;28;20050;-82
2021/09/01 14:42:56;;;;;;;10.82;6.40;;;;;;;21.96;50.84;101279.59;20663934;28;20117;-82
2021/09/01 14:52:57;;;;;;;11.98;5.78;;;;;;;22.11;51.13;101270.84;20678421;23;20514;-72
2021/09/01 15:02:59;;;;;;;11.05;6.25;;;;;;;21.99;52.86;101271.41;20509027;29;20055;-72
2021/09/01 15:13:01;;;;;;;12.85;5.80;;;;;;;21.19;55.87;101269.00;20509198;29;20146;-72
2021/09/01 15:23:03;;;;;;;8.80;5.75;;;;;;;21.41;53.92;101253.78;20508700;29;20058;-72
2021/09/01 15:33:05;;;;;;;8.48;5.57;;;;;;;21.66;53.84;101240.16;20506841;28;20110;-73
2021/09/01 15:43:08;;;;;;;11.18;6.50;;;;;;;21.71;53.50;101240.78;20507730;29;20561;-73
2021/09/01 15:53:10;;;;;;;11.70;6.67;;;;;;;21.63;54.68;101226.97;20507221;28;20051;-73
2021/09/01 16:03:15;;;;;;;9.65;5.53;;;;;;;21.51;55.14;101227.56;20506034;29;20074;-73
2021/09/01 16:13:17;;;;;;;9.45;5.88;;;;;;;21.50;55.04;101225.81;20477672;29;20421;-73
2021/09/01 16:23:24;;;;;;;10.70;6.38;;;;;;;21.38;55.40;101221.09;20425986;29;20110;-73
2021/09/01 16:33:26;;;;;;;9.13;5.65;;;;;;;21.29;55.16;101224.16;20473933;28;20110;-73
2021/09/01 16:43:31;;;;;;;11.38;5.82;;;;;;;21.36;55.08;101217.63;20503048;28;20102;-73
2021/09/01 16:53:34;;;;;;;11.43;5.35;;;;;;;21.23;55.91;101233.31;20484621;29;20087;-71
2021/09/01 17:03:39;;;;;;;9.43;5.20;;;;;;;20.97;55.76;101234.50;20500374;28;20051;-71
2021/09/01 17:13:47;;;;;;;16.50;5.60;;;;;;;20.70;57.47;101220.66;21180297;27;20371;-70
2021/09/01 17:23:49;;;;;;;12.13;5.50;;;;;;;20.42;58.16;101231.63;21142269;28;20051;-70
2021/09/01 17:33:52;;;;;;;12.35;4.80;;;;;;;20.24;59.63;101236.78;21077508;27;20638;-71
2021/09/01 17:43:54;;;;;;;12.07;5.97;;;;;;;19.82;62.49;101243.88;20972143;28;20048;-70
2021/09/01 17:53:56;;;;;;;8.95;4.95;;;;;;;19.44;63.70;101233.81;20881284;28;20114;-72
2021/09/01 18:03:59;;;;;;;10.43;5.65;;;;;;;19.32;63.82;101233.47;20887769;28;20053;-72
2021/09/01 18:14:01;;;;;;;10.73;6.22;;;;;;;18.81;65.76;101243.31;20917961;28;20061;-70
2021/09/01 18:24:02;;;;;;;12.80;6.00;;;;;;;18.37;67.59;101252.81;20838434;28;20112;-70
2021/09/01 18:34:04;;;;;;;9.77;5.55;;;;;;;18.09;69.18;101261.69;20831193;28;20057;-70
2021/09/01 18:44:06;;;;;;;12.77;6.53;;;;;;;17.92;69.54;101264.03;20831121;28;20053;-70
2021/09/01 18:54:09;;;;;;;13.00;6.20;;;;;;;17.82;70.01;101265.22;20830713;28;20049;-70
2021/09/01 19:04:14;;;;;;;10.98;6.20;;;;;;;17.65;70.11;101282.50;20838852;28;20049;-70
2021/09/01 19:14:17;;;;;;;11.52;6.93;;;;;;;17.49;71.00;101277.72;20881412;28;20099;-72
2021/09/01 19:24:18;;;;;;;11.40;6.88;;;;;;;17.31;71.09;101289.72;20936436;28;20098;-70
2021/09/01 19:34:22;;;;;;;11.10;6.97;;;;;;;17.21;71.66;101293.56;20887064;28;20041;-70
2021/09/01 19:44:24;;;;;;;10.38;6.47;;;;;;;17.09;71.86;101300.91;20825819;28;20049;-70
2021/09/01 19:54:28;;;;;;;14.70;7.88;;;;;;;16.87;72.67;101313.03;20825046;28;20107;-72
2021/09/01 20:04:30;;;;;;;13.25;8.00;;;;;;;16.66;73.27;101317.06;20823562;28;20042;-72
2021/09/01 20:14:32;;;;;;;11.43;6.70;;;;;;;16.54;74.03;101326.19;20863417;28;20048;-72
2021/09/01 20:24:34;;;;;;;12.13;7.60;;;;;;;16.26;75.08;101327.78;20908720;28;20103;-74
2021/09/01 20:34:37;;;;;;;11.55;7.97;;;;;;;16.09;75.49;101336.97;20904187;28;20052;-73
2021/09/01 20:44:47;;;;;;;15.05;8.50;;;;;;;15.97;76.34;101342.56;20904453;28;20044;-73
2021/09/01 20:54:58;;;;;;;16.15;8.23;;;;;;;15.79;76.67;101348.25;20903842;28;20585;-73
2021/09/01 21:05:00;;;;;;;12.60;8.20;;;;;;;15.59;77.65;101353.94;20902963;28;20128;-73
2021/09/01 21:15:04;;;;;;;11.95;7.75;;;;;;;15.43;78.13;101369.22;20859157;28;20046;-73
2021/09/01 21:25:07;;;;;;;12.90;7.95;;;;;;;15.17;80.04;101368.84;20820076;28;20055;-71
2021/09/01 21:35:09;;;;;;;13.85;8.10;;;;;;;15.02;79.88;101381.41;20818555;28;20050;-71
2021/09/01 21:45:11;;;;;;;14.20;8.88;;;;;;;14.89;80.58;101379.91;20819324;28;20479;-71
2021/09/01 21:55:16;;;;;;;12.73;8.02;;;;;;;14.59;81.99;101376.91;20826220;28;20050;-73
2021/09/01 22:05:18;;;;;;;13.27;8.73;;;;;;;14.38;82.30;101377.22;20833269;28;20061;-74
2021/09/01 22:15:19;;;;;;;17.73;9.55;;;;;;;14.17;83.38;101374.91;20832608;28;20049;-74
2021/09/01 22:25:21;;;;;;;15.10;9.18;;;;;;;14.16;83.53;101386.34;20831675;28;20076;-74
2021/09/01 22:35:23;;;;;;;16.58;9.38;;;;;;;14.05;83.52;101387.38;20830696;28;20037;-73
2021/09/01 22:45:25;;;;;;;16.02;9.52;;;;;;;13.93;83.59;101374.38;20830190;28;20111;-74
2021/09/01 22:55:27;;;;;;;17.33;9.77;;;;;;;13.85;84.10;101382.38;20827863;28;20125;-75
2021/09/01 23:05:29;;;;;;;17.45;10.27;;;;;;;13.77;83.83;101375.47;20827633;28;20388;-74
2021/09/01 23:15:31;;;;;;;17.08;9.73;;;;;;;13.71;83.98;101370.31;20827539;28;20091;-74
2021/09/01 23:25:33;;;;;;;19.17;9.77;;;;;;;13.52;84.63;101373.16;20826955;28;20098;-74
2021/09/01 23:35:35;;;;;;;18.38;10.63;;;;;;;13.63;84.06;101373.03;20825780;28;20068;-73
2021/09/01 23:45:37;;;;;;;16.58;9.52;;;;;;;13.57;83.83;101373.97;20824067;28;20045;-74
2021/09/01 23:55:39;;;;;;;15.23;10.43;;;;;;;13.51;83.80;101363.53;20824226;28;20053;-74
